Fanshawe, Oklahoma
Current Conditions -  °F | °C
As of 2:35 PM on Friday 28 Nov 2014 (Local Time) from KRKR Reporting Station
Clear Clear  
Wind Chill: 65°   Ceiling: Unl
Heat Index: 65°   Visibility: 10mi
Dew Point: 37°   Wind: 14mph
Humidity: 36%   Direction: 180°S
Pressure: 30.02"   Gusts: 23mph
Location:  34.95°N, 94.91°W
Report Text: KRKR 282035Z AUTO 18012G20KT 10SM CLR 18/03 A3002 RMK AO2 T01810029
Loading
Personal Weather Stations






























Interactive Weather Map New forecast layout! Learn more

10-Day Weather Forecast

Advertisements
Track Severe Weather on mobile